Time;durP1;ratioP1;P1;durP2;ratioP2;P2;SDS_P1;SDS_P2;PMS_P1;PMS_P2;Temp;Humidity;BMP_temperature;BMP_pressure;BME280_temperature;BME280_humidity;BME280_pressure;Samples;Min_cycle;Max_cycle;Signal;HPM_P1;HPM_P2
2022/08/23 00:00:34;;;;;;;5.45;2.25;;;22.00;67.00;;;;;;4998751;28;20379;-80
2022/08/23 00:02:59;;;;;;;3.33;1.95;;;21.90;67.20;;;;;;5012083;28;20037;-80
2022/08/23 00:05:25;;;;;;;8.15;2.20;;;21.90;67.40;;;;;;5012900;28;20077;-80
2022/08/23 00:07:51;;;;;;;3.58;2.28;;;21.90;67.40;;;;;;5030026;28;20053;-78
2022/08/23 00:10:17;;;;;;;4.43;2.13;;;21.90;67.50;;;;;;5052765;28;20025;-78
2022/08/23 00:12:44;;;;;;;2.55;1.95;;;21.90;67.50;;;;;;5034982;28;20074;-78
2022/08/23 00:15:13;;;;;;;3.05;1.92;;;21.90;67.70;;;;;;5034957;28;20025;-80
2022/08/23 00:17:41;;;;;;;6.22;2.00;;;21.90;67.60;;;;;;5035855;28;20087;-80
2022/08/23 00:20:09;;;;;;;2.90;2.00;;;21.90;67.60;;;;;;5038569;28;20051;-80
2022/08/23 00:22:35;;;;;;;3.60;2.20;;;21.80;67.70;;;;;;5056772;28;20033;-81
2022/08/23 00:25:00;;;;;;;6.80;2.17;;;21.80;67.70;;;;;;5037994;28;20029;-80
2022/08/23 00:27:26;;;;;;;3.83;2.17;;;21.80;67.90;;;;;;5039092;28;20072;-81
2022/08/23 00:29:54;;;;;;;2.22;1.70;;;21.80;68.10;;;;;;5055889;28;20025;-80
2022/08/23 00:32:27;;;;;;;2.40;1.88;;;21.80;68.10;;;;;;5056614;28;20056;-81
2022/08/23 00:34:53;;;;;;;3.50;1.67;;;21.70;68.10;;;;;;5055921;28;20027;-81
2022/08/23 00:37:20;;;;;;;2.97;1.95;;;21.80;68.10;;;;;;5038167;28;20432;-81
2022/08/23 00:39:46;;;;;;;4.55;2.10;;;21.80;68.20;;;;;;5038464;28;20029;-78
2022/08/23 00:48:07;;;;;;;6.70;2.00;;;21.70;68.80;;;;;;5055785;28;20055;-82
2022/08/23 00:50:36;;;;;;;4.15;2.00;;;21.60;68.90;;;;;;5038828;28;20056;-82
2022/08/23 00:53:11;;;;;;;3.25;2.10;;;21.60;69.70;;;;;;5038216;28;20040;-82
2022/08/23 00:55:39;;;;;;;4.22;2.10;;;21.50;69.20;;;;;;5038556;28;20025;-82
2022/08/23 00:58:06;;;;;;;4.15;2.00;;;21.50;69.30;;;;;;5037660;28;20090;-81
2022/08/23 01:00:33;;;;;;;3.90;2.15;;;21.40;69.50;;;;;;5056044;28;20028;-81
2022/08/23 01:03:00;;;;;;;2.42;1.90;;;21.40;69.60;;;;;;5055328;28;20029;-81
2022/08/23 01:05:31;;;;;;;3.28;2.00;;;21.40;69.70;;;;;;5038546;28;20124;-82
2022/08/23 01:07:58;;;;;;;4.53;2.08;;;21.40;69.90;;;;;;5037183;28;20083;-81
2022/08/23 01:10:38;;;;;;;5.13;2.05;;;21.40;70.00;;;;;;5055773;28;20029;-81
2022/08/23 01:13:24;;;;;;;3.15;1.85;;;21.30;70.10;;;;;;5037723;28;20028;-80
2022/08/23 01:15:59;;;;;;;2.88;1.77;;;21.30;70.50;;;;;;5054940;28;20082;-78
2022/08/23 01:18:27;;;;;;;3.63;1.92;;;21.30;70.50;;;;;;5037998;28;20157;-79
2022/08/23 01:21:02;;;;;;;4.10;2.10;;;21.20;70.70;;;;;;5037182;28;20056;-81
2022/08/23 01:23:44;;;;;;;3.17;2.42;;;21.10;71.00;;;;;;5038195;28;20489;-82
2022/08/23 01:26:13;;;;;;;3.80;1.98;;;21.20;71.00;;;;;;5037481;28;20025;-82
2022/08/23 01:28:39;;;;;;;2.90;2.00;;;21.10;71.10;;;;;;5055428;28;20075;-82
2022/08/23 01:31:06;;;;;;;3.72;2.15;;;21.00;71.30;;;;;;5037394;28;20040;-82
2022/08/23 01:33:33;;;;;;;4.00;2.25;;;21.10;71.50;;;;;;5037917;28;20025;-82
2022/08/23 01:35:59;;;;;;;5.05;1.98;;;21.10;71.40;;;;;;5037065;28;20029;-82
2022/08/23 01:38:25;;;;;;;2.45;2.13;;;21.00;71.60;;;;;;5038060;28;20052;-82
2022/08/23 01:40:52;;;;;;;3.03;2.13;;;21.00;71.80;;;;;;5037595;28;20029;-78
2022/08/23 01:43:20;;;;;;;2.70;2.03;;;20.90;72.00;;;;;;5037631;28;20496;-83
2022/08/23 01:45:47;;;;;;;3.03;1.80;;;20.90;72.20;;;;;;5055241;28;20035;-82
2022/08/23 01:48:14;;;;;;;6.00;2.50;;;20.90;72.30;;;;;;5054269;28;20029;-82
2022/08/23 01:50:40;;;;;;;4.25;2.08;;;20.80;72.40;;;;;;5037548;28;20025;-82
2022/08/23 01:53:06;;;;;;;3.47;2.17;;;20.80;72.40;;;;;;5036970;28;20075;-83
2022/08/23 01:55:33;;;;;;;2.63;1.85;;;20.90;72.70;;;;;;5037196;28;20083;-83
2022/08/23 01:58:01;;;;;;;3.78;2.20;;;20.80;72.60;;;;;;5054202;28;20033;-82
2022/08/23 02:00:35;;;;;;;4.28;2.17;;;20.80;72.80;;;;;;5037153;28;20090;-82
2022/08/23 02:03:01;;;;;;;3.47;2.00;;;20.80;72.90;;;;;;5036690;28;20020;-82
2022/08/23 02:05:28;;;;;;;3.45;2.20;;;20.70;73.10;;;;;;5037307;28;20345;-82
2022/08/23 02:07:54;;;;;;;3.72;2.25;;;20.60;73.40;;;;;;5033118;28;20099;-81
2022/08/23 02:10:20;;;;;;;4.35;2.35;;;20.60;73.60;;;;;;5033966;28;20079;-82
2022/08/23 02:12:46;;;;;;;4.38;2.38;;;20.60;73.70;;;;;;5033954;28;20033;-82
2022/08/23 02:15:12;;;;;;;2.95;2.00;;;20.60;73.60;;;;;;5032845;28;20022;-79
2022/08/23 02:17:38;;;;;;;2.85;2.00;;;20.60;73.70;;;;;;5033527;28;20037;-80
2022/08/23 02:20:05;;;;;;;5.70;2.30;;;20.50;73.90;;;;;;5032863;28;20382;-78
2022/08/23 02:22:32;;;;;;;4.13;2.30;;;20.50;74.00;;;;;;5034427;28;20028;-79
2022/08/23 02:24:58;;;;;;;4.00;2.47;;;20.50;74.10;;;;;;5033770;28;20447;-80
2022/08/23 02:27:23;;;;;;;3.75;2.30;;;20.40;74.30;;;;;;5033636;28;20032;-81
2022/08/23 02:29:49;;;;;;;4.93;2.30;;;20.40;74.50;;;;;;5033267;28;20065;-80
2022/08/23 02:32:17;;;;;;;2.85;2.08;;;20.30;74.70;;;;;;5032655;28;20035;-80
2022/08/23 02:34:45;;;;;;;3.65;2.25;;;20.30;74.80;;;;;;5033012;28;20523;-80
2022/08/23 02:37:12;;;;;;;4.07;2.22;;;20.20;75.00;;;;;;5032232;28;20045;-80
2022/08/23 02:39:39;;;;;;;3.20;2.35;;;20.20;75.10;;;;;;5032927;28;20108;-80
2022/08/23 02:42:06;;;;;;;5.85;2.80;;;20.10;75.50;;;;;;5032111;28;20029;-83
2022/08/23 02:44:33;;;;;;;2.95;2.10;;;20.00;75.70;;;;;;5033672;28;20029;-83
2022/08/23 02:47:00;;;;;;;3.45;2.15;;;20.00;75.90;;;;;;5032720;28;20030;-83
2022/08/23 02:49:26;;;;;;;2.90;2.20;;;20.10;76.00;;;;;;5034343;28;20135;-83
2022/08/23 02:51:51;;;;;;;2.60;2.10;;;20.00;76.10;;;;;;5033422;28;20025;-82
2022/08/23 02:54:17;;;;;;;2.92;2.10;;;20.00;76.10;;;;;;5033744;28;20163;-84
2022/08/23 02:56:42;;;;;;;3.22;2.55;;;20.00;76.20;;;;;;5033976;28;20030;-84
2022/08/23 02:59:08;;;;;;;4.60;2.40;;;19.80;76.40;;;;;;5032488;28;20033;-84
2022/08/23 03:01:37;;;;;;;3.28;2.35;;;19.80;76.70;;;;;;5032946;28;20437;-84
2022/08/23 03:04:05;;;;;;;3.95;2.22;;;19.80;77.00;;;;;;5032180;28;20025;-84
2022/08/23 03:06:31;;;;;;;3.67;2.33;;;19.80;77.10;;;;;;5032843;28;20079;-83
2022/08/23 03:08:57;;;;;;;4.53;2.65;;;19.80;77.30;;;;;;5032320;28;20053;-77
2022/08/23 03:11:23;;;;;;;3.95;2.00;;;19.70;77.70;;;;;;5032878;28;20096;-84
2022/08/23 03:13:50;;;;;;;4.35;2.47;;;19.70;77.80;;;;;;5032849;28;20029;-84
2022/08/23 03:16:17;;;;;;;4.45;2.72;;;19.70;77.90;;;;;;5032241;28;20037;-83
2022/08/23 03:18:43;;;;;;;4.15;2.60;;;19.50;78.10;;;;;;5033994;28;20036;-83
2022/08/23 03:21:09;;;;;;;3.58;2.50;;;19.50;78.40;;;;;;5032208;28;20021;-84
2022/08/23 03:23:36;;;;;;;4.28;2.50;;;19.40;78.80;;;;;;5033753;28;20033;-84
2022/08/23 03:26:04;;;;;;;4.20;2.30;;;19.30;79.00;;;;;;5031860;28;20033;-83
2022/08/23 03:28:31;;;;;;;4.53;2.30;;;19.30;79.10;;;;;;5033557;28;20029;-81
2022/08/23 03:30:57;;;;;;;3.72;2.42;;;19.30;79.40;;;;;;5033806;28;20032;-79
2022/08/23 03:33:23;;;;;;;3.30;2.25;;;19.30;79.60;;;;;;5032552;28;20029;-81
2022/08/23 03:35:49;;;;;;;4.00;2.53;;;19.30;79.50;;;;;;5032437;28;20057;-81
2022/08/23 03:38:15;;;;;;;4.82;2.42;;;19.40;79.50;;;;;;5031902;28;20103;-81
2022/08/23 03:40:41;;;;;;;5.15;2.55;;;19.40;79.70;;;;;;5033460;28;20025;-81
2022/08/23 03:43:08;;;;;;;3.70;2.58;;;19.30;80.10;;;;;;5031711;28;20037;-80
2022/08/23 03:45:33;;;;;;;7.60;2.40;;;19.30;80.00;;;;;;5032369;28;20562;-81
2022/08/23 03:48:00;;;;;;;2.63;2.15;;;19.20;80.20;;;;;;5032835;28;20057;-78
2022/08/23 03:50:26;;;;;;;4.07;2.30;;;19.30;80.30;;;;;;5032740;28;20029;-81
2022/08/23 03:52:51;;;;;;;4.53;2.58;;;19.30;80.30;;;;;;5033265;28;20026;-81
2022/08/23 03:55:17;;;;;;;2.78;2.30;;;19.30;80.30;;;;;;5036681;28;20021;-80
2022/08/23 03:57:43;;;;;;;3.35;2.42;;;19.30;80.30;;;;;;5036363;28;20030;-80
2022/08/23 04:00:12;;;;;;;3.58;2.40;;;19.30;80.50;;;;;;5036655;28;20459;-81
2022/08/23 04:02:38;;;;;;;4.97;2.42;;;19.20;80.80;;;;;;5037270;28;20060;-81
2022/08/23 04:05:07;;;;;;;5.72;2.50;;;19.10;81.00;;;;;;5036699;28;20056;-81
2022/08/23 04:07:34;;;;;;;2.95;2.45;;;19.10;80.90;;;;;;5035863;28;20057;-81
2022/08/23 04:10:00;;;;;;;4.95;2.60;;;19.20;81.20;;;;;;5035447;28;20022;-78
2022/08/23 04:12:25;;;;;;;3.53;2.50;;;19.20;81.30;;;;;;5036018;28;20030;-81
2022/08/23 04:14:52;;;;;;;4.13;2.50;;;19.10;81.40;;;;;;5037143;28;20049;-81
2022/08/23 04:17:19;;;;;;;5.28;2.80;;;19.10;81.60;;;;;;5035594;28;20033;-81
2022/08/23 04:19:45;;;;;;;5.13;2.63;;;19.00;81.60;;;;;;5035668;28;20035;-82
2022/08/23 04:22:13;;;;;;;4.85;2.75;;;19.00;81.80;;;;;;5035297;28;20025;-81
2022/08/23 04:24:39;;;;;;;4.50;2.60;;;19.00;82.10;;;;;;5035677;28;20022;-81
2022/08/23 04:27:05;;;;;;;3.85;2.50;;;19.00;82.00;;;;;;5034841;28;20037;-80
2022/08/23 04:29:30;;;;;;;3.70;2.60;;;19.00;82.10;;;;;;5035654;28;20021;-80
2022/08/23 04:31:56;;;;;;;5.10;2.60;;;19.00;82.00;;;;;;5035694;28;20025;-80
2022/08/23 04:34:22;;;;;;;3.75;2.78;;;19.00;82.10;;;;;;5034908;28;20150;-80
2022/08/23 04:36:48;;;;;;;3.58;2.60;;;19.00;82.40;;;;;;5036543;28;20183;-79
2022/08/23 04:39:15;;;;;;;4.40;2.40;;;19.00;82.50;;;;;;5034833;28;20036;-80
2022/08/23 04:44:24;;;;;;;3.38;2.47;;;19.00;82.60;;;;;;5036349;28;20119;-80
2022/08/23 04:46:50;;;;;;;5.60;2.80;;;18.90;82.90;;;;;;5034890;28;20542;-79
2022/08/23 04:49:17;;;;;;;3.45;2.47;;;18.90;83.30;;;;;;5034317;28;20025;-79
2022/08/23 04:51:42;;;;;;;5.22;2.60;;;18.80;83.60;;;;;;5035171;28;20026;-79
2022/08/23 04:54:08;;;;;;;5.82;2.85;;;18.80;83.80;;;;;;5034212;28;20108;-80
2022/08/23 04:56:35;;;;;;;4.00;2.60;;;18.90;83.80;;;;;;5036326;28;20032;-80
2022/08/23 04:59:00;;;;;;;4.05;2.40;;;18.80;83.80;;;;;;5036398;28;20445;-78
2022/08/23 05:01:26;;;;;;;4.85;2.88;;;18.80;84.20;;;;;;5034910;28;20466;-80
2022/08/23 05:03:53;;;;;;;5.25;2.65;;;18.80;84.20;;;;;;5035685;28;20021;-80
2022/08/23 05:06:18;;;;;;;7.07;3.33;;;18.80;84.40;;;;;;5034362;28;20502;-81
2022/08/23 05:08:44;;;;;;;5.22;3.00;;;18.80;84.50;;;;;;5051975;28;20049;-79
2022/08/23 05:11:10;;;;;;;3.88;2.70;;;18.80;84.80;;;;;;5037073;28;20017;-80
2022/08/23 05:13:37;;;;;;;4.07;2.70;;;18.80;85.00;;;;;;5038370;28;20025;-82
2022/08/23 05:16:03;;;;;;;4.75;2.70;;;18.80;84.90;;;;;;5038043;28;20036;-78
2022/08/23 05:18:29;;;;;;;8.57;2.70;;;18.90;84.70;;;;;;5037839;28;20037;-82
2022/08/23 05:20:54;;;;;;;11.50;3.10;;;19.00;84.70;;;;;;5038003;28;20028;-81
2022/08/23 05:23:20;;;;;;;20.42;3.78;;;19.00;84.80;;;;;;5037388;28;20025;-82
2022/08/23 05:25:49;;;;;;;14.93;3.35;;;19.00;84.80;;;;;;5038178;28;20033;-82
2022/08/23 05:28:17;;;;;;;12.25;3.40;;;19.00;85.10;;;;;;5037134;28;20029;-82
2022/08/23 05:30:42;;;;;;;7.68;2.67;;;19.10;85.60;;;;;;5037838;28;20032;-83
2022/08/23 05:33:08;;;;;;;6.10;2.80;;;19.10;85.00;;;;;;5037113;28;20025;-82
2022/08/23 05:35:33;;;;;;;6.05;2.83;;;19.10;84.90;;;;;;5037892;28;20033;-83
2022/08/23 05:37:59;;;;;;;5.32;2.72;;;19.10;84.90;;;;;;5037903;28;20462;-83
2022/08/23 05:40:26;;;;;;;6.43;2.40;;;19.10;84.20;;;;;;5037352;28;20033;-83
2022/08/23 05:42:52;;;;;;;4.68;2.33;;;19.10;84.80;;;;;;5037694;28;20021;-83
2022/08/23 05:45:18;;;;;;;4.97;2.63;;;19.10;85.00;;;;;;5037026;28;20036;-81
2022/08/23 05:47:45;;;;;;;4.78;2.47;;;19.20;85.10;;;;;;5037652;28;20025;-82
2022/08/23 05:50:11;;;;;;;4.18;2.45;;;19.20;85.00;;;;;;5037101;28;20028;-82
2022/08/23 05:52:37;;;;;;;5.18;3.15;;;19.30;84.90;;;;;;5037714;28;20032;-82
2022/08/23 05:55:04;;;;;;;4.63;2.42;;;19.30;84.80;;;;;;5037457;28;20025;-80
2022/08/23 05:57:30;;;;;;;3.72;2.60;;;19.30;84.70;;;;;;5037151;28;20115;-82
2022/08/23 05:59:56;;;;;;;5.80;2.78;;;19.30;84.40;;;;;;5037325;28;20166;-82
2022/08/23 06:02:21;;;;;;;6.63;2.38;;;19.40;84.30;;;;;;5037019;28;20021;-82
2022/08/23 06:04:47;;;;;;;2.92;2.20;;;19.40;84.20;;;;;;5037394;28;20049;-82
2022/08/23 06:07:13;;;;;;;4.13;2.45;;;19.40;84.20;;;;;;5036218;28;20048;-80
2022/08/23 06:09:38;;;;;;;4.32;2.30;;;19.50;84.30;;;;;;5037233;28;20032;-81
2022/08/23 06:12:04;;;;;;;5.95;2.92;;;19.50;84.10;;;;;;5036961;28;20021;-81
2022/08/23 06:14:30;;;;;;;4.38;2.38;;;19.50;84.10;;;;;;5036774;28;20052;-82
2022/08/23 06:16:55;;;;;;;6.00;3.03;;;19.50;84.00;;;;;;5054037;28;20029;-83
2022/08/23 06:19:21;;;;;;;6.68;2.53;;;19.40;83.90;;;;;;5036148;28;20099;-80
2022/08/23 06:21:47;;;;;;;4.20;2.45;;;19.50;83.90;;;;;;5054441;28;20079;-81
2022/08/23 06:24:13;;;;;;;4.38;2.28;;;19.60;84.00;;;;;;5035855;28;20386;-80
2022/08/23 06:26:42;;;;;;;5.07;2.60;;;19.60;84.00;;;;;;5036614;28;20029;-79
2022/08/23 06:29:13;;;;;;;2.63;2.22;;;19.70;83.70;;;;;;5036212;28;20021;-77
2022/08/23 06:31:46;;;;;;;;;;;19.70;83.90;;;;;;5037269;28;20036;-79
2022/08/23 06:34:32;;;;;;;6.03;3.30;;;19.80;84.00;;;;;;5052532;28;20372;-78
2022/08/23 06:37:03;;;;;;;5.75;2.88;;;19.90;84.00;;;;;;5036358;28;20136;-79
2022/08/23 06:39:30;;;;;;;4.55;2.97;;;19.90;83.60;;;;;;5035748;28;20021;-79
2022/08/23 06:42:02;;;;;;;4.53;2.90;;;20.00;83.70;;;;;;5054203;28;20029;-79
2022/08/23 06:44:28;;;;;;;4.68;2.60;;;20.00;83.40;;;;;;5053281;28;20020;-79
2022/08/23 06:46:57;;;;;;;5.28;2.85;;;20.10;83.50;;;;;;5054077;28;20033;-80
2022/08/23 06:49:24;;;;;;;6.18;3.33;;;20.20;83.30;;;;;;5053562;28;20027;-80
2022/08/23 06:51:51;;;;;;;3.03;2.42;;;20.20;83.60;;;;;;5036075;28;20474;-81
2022/08/23 06:54:20;;;;;;;7.28;3.58;;;20.30;83.60;;;;;;5035494;28;20021;-80
2022/08/23 06:56:47;;;;;;;7.60;2.90;;;20.30;84.10;;;;;;5053811;28;20069;-83
2022/08/23 06:59:12;;;;;;;12.27;3.65;;;20.40;84.30;;;;;;5053442;28;20122;-84
2022/08/23 07:01:49;;;;;;;8.35;3.75;;;20.50;84.40;;;;;;5036293;28;20486;-84
2022/08/23 07:04:18;;;;;;;7.40;3.45;;;20.60;84.30;;;;;;5035389;28;20040;-82
2022/08/23 07:06:44;;;;;;;9.45;3.22;;;20.60;84.40;;;;;;5053813;28;20051;-86
2022/08/23 07:09:11;;;;;;;6.57;2.70;;;20.70;84.50;;;;;;5035296;28;20052;-78
2022/08/23 07:11:38;;;;;;;6.28;2.65;;;20.80;84.70;;;;;;5035882;28;20025;-86
2022/08/23 07:14:06;;;;;;;6.47;2.60;;;20.80;84.30;;;;;;5036477;28;20112;-83
2022/08/23 07:16:37;;;;;;;6.25;2.53;;;20.90;84.20;;;;;;5053247;28;20032;-80
2022/08/23 07:19:03;;;;;;;3.03;2.15;;;21.00;83.30;;;;;;5036425;28;20025;-82
2022/08/23 07:21:29;;;;;;;5.18;2.13;;;21.10;82.90;;;;;;5035630;28;20032;-81
2022/08/23 07:23:55;;;;;;;5.25;2.95;;;21.20;82.40;;;;;;5035942;28;20123;-84
2022/08/23 07:26:22;;;;;;;6.25;2.40;;;21.30;82.30;;;;;;5035230;28;20119;-83
2022/08/23 07:28:48;;;;;;;5.63;2.67;;;21.40;82.10;;;;;;5036060;28;20025;-83
2022/08/23 07:31:21;;;;;;;6.15;2.70;;;21.40;82.20;;;;;;5034955;28;20047;-80
2022/08/23 07:33:48;;;;;;;7.57;2.47;;;21.40;82.40;;;;;;5035780;28;20123;-83
2022/08/23 07:36:16;;;;;;;3.60;2.10;;;21.50;82.10;;;;;;5052578;28;20039;-77
2022/08/23 07:38:45;;;;;;;6.10;2.17;;;21.50;81.70;;;;;;5035683;28;20040;-83
2022/08/23 07:41:11;;;;;;;4.25;2.10;;;21.60;81.80;;;;;;5053310;28;20035;-80
2022/08/23 07:43:38;;;;;;;6.82;2.30;;;21.70;81.80;;;;;;5035924;28;20120;-82
2022/08/23 07:46:04;;;;;;;6.43;2.25;;;21.70;81.60;;;;;;5035950;28;20032;-81
2022/08/23 07:48:30;;;;;;;6.50;2.20;;;21.70;81.60;;;;;;5034929;28;20351;-82
2022/08/23 07:51:00;;;;;;;4.55;2.40;;;21.80;81.40;;;;;;5035622;28;20087;-82
2022/08/23 07:53:26;;;;;;;3.40;1.98;;;21.90;81.30;;;;;;5052336;28;20037;-82
2022/08/23 07:55:52;;;;;;;6.40;2.10;;;21.90;81.20;;;;;;5035577;28;20036;-82
2022/08/23 07:58:19;;;;;;;5.65;2.30;;;21.90;81.10;;;;;;5035001;28;20032;-82
2022/08/23 08:00:45;;;;;;;6.38;2.35;;;21.90;81.10;;;;;;5053195;28;20071;-82
2022/08/23 08:03:12;;;;;;;4.30;2.20;;;22.00;81.20;;;;;;5035285;28;20033;-82
2022/08/23 08:05:38;;;;;;;8.70;3.15;;;22.00;81.00;;;;;;5035206;28;20124;-83
2022/08/23 08:08:05;;;;;;;8.77;2.67;;;22.10;81.30;;;;;;5035325;28;20076;-83
2022/08/23 08:10:31;;;;;;;5.68;2.50;;;22.10;81.30;;;;;;5035051;28;20031;-83
2022/08/23 08:12:57;;;;;;;9.05;2.60;;;22.10;81.30;;;;;;5035548;28;20097;-83
2022/08/23 08:15:22;;;;;;;5.00;2.35;;;22.20;80.80;;;;;;5035147;28;20029;-83
2022/08/23 08:17:50;;;;;;;4.10;2.17;;;22.30;80.70;;;;;;5053179;28;20060;-83
2022/08/23 08:20:16;;;;;;;5.70;2.40;;;22.30;81.00;;;;;;5034788;28;20539;-79
2022/08/23 08:22:42;;;;;;;6.72;2.08;;;22.40;80.60;;;;;;5052990;28;20025;-83
2022/08/23 08:25:09;;;;;;;5.85;2.00;;;22.50;79.50;;;;;;5035305;28;20027;-83
2022/08/23 08:27:35;;;;;;;3.75;2.00;;;22.60;79.00;;;;;;5034310;28;20024;-82
2022/08/23 08:30:03;;;;;;;3.75;1.95;;;22.60;78.70;;;;;;5052558;28;20104;-83
2022/08/23 08:32:28;;;;;;;5.60;2.13;;;22.70;78.60;;;;;;5034369;28;20102;-81
2022/08/23 08:34:54;;;;;;;3.10;1.90;;;22.70;78.20;;;;;;5035391;28;20057;-84
2022/08/23 08:37:19;;;;;;;5.60;1.90;;;22.80;78.00;;;;;;5034850;28;20049;-81
2022/08/23 08:39:45;;;;;;;5.13;1.90;;;22.80;78.10;;;;;;5037268;28;20094;-82
2022/08/23 08:42:47;;;;;;;5.03;1.95;;;22.90;77.90;;;;;;5039011;28;20029;-82
2022/08/23 08:45:22;;;;;;;8.30;1.98;;;22.90;77.60;;;;;;5038749;28;20025;-82
2022/08/23 08:48:06;;;;;;;6.70;2.05;;;23.00;77.80;;;;;;5038882;28;20043;-82
2022/08/23 08:50:37;;;;;;;7.05;1.98;;;23.10;77.50;;;;;;5055909;28;20485;-81
2022/08/23 08:53:13;;;;;;;4.97;1.50;;;23.10;77.70;;;;;;5056005;28;20530;-81
2022/08/23 08:55:49;;;;;;;3.58;1.73;;;23.20;77.00;;;;;;5037727;28;20382;-82
2022/08/23 08:58:29;;;;;;;5.93;2.08;;;23.20;76.40;;;;;;5055985;28;20463;-79
2022/08/23 09:00:55;;;;;;;4.00;2.00;;;23.30;76.10;;;;;;5049037;28;20132;-84
2022/08/23 09:03:22;;;;;;;5.70;1.58;;;23.30;75.60;;;;;;5023342;28;20382;-79
2022/08/23 09:06:08;;;;;;;5.90;1.77;;;23.40;75.40;;;;;;5024933;28;20107;-79
2022/08/23 09:08:43;;;;;;;8.30;2.00;;;23.40;75.30;;;;;;5029584;28;20562;-83
2022/08/23 09:11:19;;;;;;;5.60;1.30;;;23.50;75.30;;;;;;5036491;28;20064;-81
2022/08/23 09:14:15;;;;;;;3.80;1.48;;;23.50;74.60;;;;;;5018087;28;20033;-83
2022/08/23 09:16:56;;;;;;;7.30;2.28;;;23.60;74.50;;;;;;5037152;28;20048;-82
2022/08/23 09:19:23;;;;;;;6.35;1.90;;;23.60;74.50;;;;;;5036993;28;20029;-79
2022/08/23 09:21:59;;;;;;;3.47;1.60;;;23.60;74.70;;;;;;5017641;28;20037;-82
2022/08/23 09:24:26;;;;;;;4.25;1.95;;;23.70;74.50;;;;;;5011713;28;20095;-80
2022/08/23 09:26:52;;;;;;;4.40;1.70;;;23.80;73.90;;;;;;5020877;28;20562;-86
2022/08/23 09:29:32;;;;;;;6.00;1.50;;;23.80;73.10;;;;;;5012677;28;20029;-80
2022/08/23 09:32:04;;;;;;;4.22;1.73;;;24.00;72.90;;;;;;5019504;28;20108;-84
2022/08/23 09:34:34;;;;;;;3.08;1.85;;;24.10;72.50;;;;;;5018100;28;20026;-87
2022/08/23 09:37:12;;;;;;;4.15;1.75;;;24.10;72.50;;;;;;5012919;28;20072;-85
2022/08/23 09:39:42;;;;;;;2.75;1.63;;;24.20;72.10;;;;;;5015589;28;20022;-83
2022/08/23 09:42:42;;;;;;;3.83;1.40;;;24.30;72.00;;;;;;5011792;28;20033;-84
2022/08/23 09:45:29;;;;;;;5.20;1.52;;;24.20;71.40;;;;;;4976397;28;20045;-81
2022/08/23 09:47:55;;;;;;;9.02;1.60;;;24.20;70.80;;;;;;5006486;28;20472;-80
2022/08/23 09:50:28;;;;;;;3.78;1.35;;;24.10;71.10;;;;;;5029419;28;20025;-78
2022/08/23 09:52:59;;;;;;;2.88;1.40;;;24.30;71.60;;;;;;5016790;28;20030;-82
2022/08/23 09:55:38;;;;;;;4.78;1.50;;;24.40;71.30;;;;;;5016530;28;20065;-80
2022/08/23 09:58:16;;;;;;;6.60;2.08;;;24.40;70.90;;;;;;5017263;28;20475;-82
2022/08/23 10:00:42;;;;;;;8.82;4.70;;;24.50;71.40;;;;;;5034110;28;20028;-80
2022/08/23 10:03:24;;;;;;;6.22;3.80;;;24.50;71.10;;;;;;5017199;28;20025;-81
2022/08/23 10:05:55;;;;;;;5.57;1.90;;;24.50;71.20;;;;;;5002528;28;20052;-83
2022/08/23 10:08:23;;;;;;;;;;;24.50;71.30;;;;;;5013798;28;20133;-84
2022/08/23 10:10:52;;;;;;;4.35;1.73;;;24.60;71.20;;;;;;5014571;28;19916;-88
2022/08/23 10:13:19;;;;;;;4.85;1.80;;;24.60;71.30;;;;;;5014285;28;20033;-79
2022/08/23 10:15:50;;;;;;;5.10;1.65;;;24.80;70.70;;;;;;5015095;28;20030;-89
2022/08/23 10:18:53;;;;;;;3.13;1.48;;;24.80;70.20;;;;;;5015112;28;20029;-84
2022/08/23 10:21:28;;;;;;;4.40;1.80;;;24.90;69.70;;;;;;5013182;28;20026;-77
2022/08/23 10:24:21;;;;;;;5.30;1.75;;;24.90;69.50;;;;;;5005857;28;20022;-87
2022/08/23 10:26:57;;;;;;;3.13;1.73;;;24.90;69.30;;;;;;5028407;28;20037;-90
2022/08/23 10:29:57;;;;;;;3.95;1.60;;;25.00;69.00;;;;;;5019322;28;20053;-88
2022/08/23 10:32:54;;;;;;;3.20;1.60;;;25.10;68.60;;;;;;4988766;28;20121;-86
2022/08/23 10:35:48;;;;;;;3.50;1.63;;;25.20;68.40;;;;;;5011711;28;20036;-85
2022/08/23 10:38:35;;;;;;;3.38;1.55;;;25.20;68.20;;;;;;5014225;28;20034;-86
2022/08/23 10:41:42;;;;;;;3.33;1.65;;;25.50;67.20;;;;;;5014460;28;20076;-87
2022/08/23 10:44:13;;;;;;;4.63;1.83;;;25.50;67.10;;;;;;4933301;28;20030;-85
2022/08/23 10:46:45;;;;;;;;;;;25.60;67.30;;;;;;5012939;28;20045;-83
2022/08/23 10:49:13;;;;;;;4.50;1.85;;;25.70;65.80;;;;;;5009285;28;19956;-83
2022/08/23 10:51:43;;;;;;;2.63;1.50;;;25.70;65.30;;;;;;4994794;28;20038;-89
2022/08/23 10:54:17;;;;;;;5.50;2.30;;;25.70;65.30;;;;;;4995314;28;20375;-93
2022/08/23 10:56:44;;;;;;;2.72;1.60;;;25.80;65.20;;;;;;5000445;28;20037;-84
2022/08/23 10:59:29;;;;;;;3.70;1.98;;;25.70;65.00;;;;;;5013938;28;20018;-84
2022/08/23 11:02:20;;;;;;;6.28;2.10;;;25.60;64.80;;;;;;5010409;28;20463;-84
2022/08/23 11:05:26;;;;;;;2.65;1.67;;;25.60;65.00;;;;;;5012946;28;20030;-80
2022/08/23 11:08:11;;;;;;;4.80;2.05;;;25.60;64.30;;;;;;4936912;29;20445;-82
2022/08/23 11:10:48;;;;;;;5.15;2.60;;;25.70;63.90;;;;;;5006393;28;20410;-81
2022/08/23 11:13:16;;;;;;;5.38;2.95;;;25.80;63.80;;;;;;5012969;28;20033;-81
2022/08/23 11:15:47;;;;;;;3.33;1.83;;;25.90;64.20;;;;;;4993094;28;20042;-84
2022/08/23 11:18:39;;;;;;;7.15;1.85;;;26.00;63.60;;;;;;5001619;28;20052;-83
2022/08/23 11:21:07;;;;;;;6.40;1.90;;;26.00;63.20;;;;;;5009612;28;20030;-84
2022/08/23 11:24:02;;;;;;;3.80;2.00;;;26.10;62.60;;;;;;5010976;28;20033;-85
2022/08/23 11:26:30;;;;;;;58.13;34.50;;;26.30;61.40;;;;;;4989845;28;20030;-87
2022/08/23 11:29:22;;;;;;;18.80;12.85;;;26.30;62.00;;;;;;5017033;28;20459;-74
2022/08/23 11:31:59;;;;;;;8.43;3.65;;;26.40;62.10;;;;;;5001887;28;20038;-75
2022/08/23 11:34:32;;;;;;;5.90;3.35;;;26.40;62.10;;;;;;5011872;28;20037;-79
2022/08/23 11:37:19;;;;;;;5.43;1.88;;;26.60;61.60;;;;;;5013558;28;20097;-80
2022/08/23 11:39:57;;;;;;;5.18;2.08;;;26.60;61.20;;;;;;4993910;28;20552;-78
2022/08/23 11:42:36;;;;;;;5.90;1.52;;;26.60;61.00;;;;;;5001479;28;20514;-82
2022/08/23 11:45:23;;;;;;;5.38;2.05;;;26.70;60.70;;;;;;5008874;28;20117;-79
2022/08/23 11:48:19;;;;;;;5.85;1.83;;;26.70;61.80;;;;;;4998881;28;20038;-87
2022/08/23 11:51:05;;;;;;;2.33;1.55;;;26.80;60.70;;;;;;4993366;28;20041;-88
2022/08/23 11:53:41;;;;;;;3.33;1.42;;;26.90;57.70;;;;;;4996683;28;20054;-87
2022/08/23 11:56:18;;;;;;;4.80;1.95;;;26.90;58.80;;;;;;5013235;28;20044;-88
2022/08/23 11:58:44;;;;;;;4.20;1.63;;;27.10;57.50;;;;;;5028818;28;20076;-81
2022/08/23 12:01:12;;;;;;;4.53;1.52;;;27.20;57.50;;;;;;5010770;28;20026;-86
2022/08/23 12:04:09;;;;;;;3.85;1.83;;;27.20;57.30;;;;;;5012679;28;20087;-86
2022/08/23 12:06:39;;;;;;;4.05;1.80;;;27.40;56.80;;;;;;5012139;28;20115;-86
2022/08/23 12:09:34;;;;;;;4.07;1.77;;;27.50;56.90;;;;;;5012557;28;20053;-86
2022/08/23 12:12:00;;;;;;;3.35;1.80;;;27.50;56.80;;;;;;5015406;28;20466;-86
2022/08/23 12:14:41;;;;;;;3.63;1.73;;;27.60;57.00;;;;;;5020536;28;20081;-90
2022/08/23 12:17:24;;;;;;;4.35;2.17;;;27.60;57.30;;;;;;5017023;28;20034;-86
2022/08/23 12:20:17;;;;;;;3.80;2.10;;;27.70;56.60;;;;;;5012429;28;20116;-86
2022/08/23 12:22:58;;;;;;;3.28;1.70;;;27.80;56.20;;;;;;5016617;28;20108;-90
2022/08/23 12:25:24;;;;;;;5.78;1.60;;;27.80;55.50;;;;;;5014358;28;20125;-86
2022/08/23 12:27:58;;;;;;;2.88;1.33;;;27.70;54.80;;;;;;5032283;28;20483;-84
2022/08/23 12:30:32;;;;;;;4.68;1.85;;;27.70;53.90;;;;;;5015409;28;20034;-84
2022/08/23 12:33:14;;;;;;;5.18;1.85;;;27.80;54.60;;;;;;5016699;28;20349;-85
2022/08/23 12:36:04;;;;;;;4.10;1.70;;;27.70;55.40;;;;;;5004041;28;20034;-85
2022/08/23 12:38:59;;;;;;;2.97;1.35;;;27.70;55.50;;;;;;5016134;28;20452;-84
2022/08/23 12:41:32;;;;;;;5.07;1.88;;;27.90;55.30;;;;;;5015290;28;20026;-82
2022/08/23 12:44:07;;;;;;;3.90;1.73;;;28.00;54.60;;;;;;5032669;28;20048;-84
2022/08/23 12:46:45;;;;;;;2.83;1.40;;;28.10;54.20;;;;;;5031547;28;20097;-85
2022/08/23 12:49:31;;;;;;;3.10;1.50;;;28.10;52.40;;;;;;5032319;28;20070;-84
2022/08/23 12:52:00;;;;;;;3.00;1.30;;;28.00;52.20;;;;;;5001975;28;20056;-85
2022/08/23 12:54:56;;;;;;;3.88;1.48;;;28.00;52.60;;;;;;5015241;28;20029;-85
2022/08/23 12:57:31;;;;;;;3.67;1.30;;;27.90;52.50;;;;;;5013939;28;20141;-85
2022/08/23 13:00:16;;;;;;;4.60;1.60;;;27.90;52.30;;;;;;5015273;28;20026;-84
2022/08/23 13:02:49;;;;;;;3.80;1.65;;;27.80;52.90;;;;;;5019730;28;20026;-84
2022/08/23 13:05:32;;;;;;;6.72;1.65;;;28.20;52.70;;;;;;5028380;28;20532;-82
2022/08/23 13:08:01;;;;;;;3.45;1.40;;;28.80;52.00;;;;;;5025781;28;20046;-85
2022/08/23 13:10:27;;;;;;;3.70;1.40;;;29.20;51.30;;;;;;5015463;28;20030;-84
2022/08/23 13:12:53;;;;;;;6.10;1.67;;;29.40;50.80;;;;;;5016347;28;20108;-84
2022/08/23 13:15:41;;;;;;;3.25;1.52;;;29.80;50.60;;;;;;5014480;28;20056;-80